Flight Track Log - Related Links

Times and Time Zones

All times are in EDT time to prevent confusion due to time zone crossing. See the GJS3649 flight status page for this flight to view local times or setup timezone preferences in your user account.


Time Position Orientation Groundspeed Altitude Reporting Facility
EDT Latitude Longitude Course Direction KTS MPH feet Rate Location/Type
Sun 09:22:38 PM 41.9667 -87.8667 143° Southeast 190 219 2,700  Level Chicago TRACON
Sun 09:23:38 PM 41.9167 -87.8167 143° Southeast 223 257 5,000 1,500 Climbing Chicago TRACON
Sun 09:24:38 PM 41.8500 -87.8000 169° South 272 313 5,700 1,548 Climbing Chicago TRACON
Sun 09:25:42 PM 41.7847 -87.8242 195° South 285 328 8,200 2,496 Climbing Chicago Center
Sun 09:26:43 PM 41.7114 -87.7922 162° South 287 330 10,900 2,146 Climbing Chicago Center
Sun 09:27:45 PM 41.6394 -87.7350 149° Southeast 299 344 12,600 1,935 Climbing Chicago Center
Sun 09:28:47 PM 41.5358 -87.6564 150° Southeast 352 405 14,900 2,177 Climbing Chicago Center
Sun 09:29:49 PM 41.4472 -87.5881 150° Southeast 363 418 17,100 2,032 Climbing Chicago Center
Sun 09:30:51 PM 41.3425 -87.5594 168° South 387 445 19,100 1,742 Climbing Chicago Center
Sun 09:31:53 PM 41.2347 -87.5403 172° South 389 448 20,700 1,610 Climbing Chicago Center
Sun 09:32:54 PM 41.1242 -87.5125 169° South 400 460 22,400 1,512 Climbing Chicago Center
Sun 09:33:56 PM 41.0108 -87.4822 169° South 413 475 23,800 1,403 Climbing Chicago Center
Sun 09:34:58 PM 40.8961 -87.4489 168° South 421 484 25,300 1,355 Climbing Chicago Center
Sun 09:36:00 PM 40.7542 -87.4153 170° South 432 497 26,600 1,220 Climbing Chicago Center
Sun 09:37:01 PM 40.6331 -87.3822 168° South 442 509 27,800 1,268 Climbing Chicago Center
Sun 09:38:03 PM 40.5119 -87.3519 169° South 443 510 29,200 1,258 Climbing Chicago Center
Sun 09:39:05 PM 40.3825 -87.3117 167° South 446 513 30,400 1,306 Climbing Chicago Center
Sun 09:40:07 PM 40.2597 -87.2908 173° South 446 513 31,900 1,415 Climbing Chicago Center
Sun 09:41:08 PM 40.1428 -87.2656 171° South 430 495 33,300 1,570 Climbing Chicago Center
Sun 09:41:54 PM 40.0492 -87.2486 172° South 426 490 34,700 1,738 Climbing Indianapolis Center
Sun 09:42:55 PM 39.9386 -87.2258 171° South 414 476 36,400 1,180 Climbing Indianapolis Center
Sun 09:43:56 PM 39.8342 -87.1883 165° South 404 465 37,100 639 Climbing Indianapolis Center
Sun 09:44:57 PM 39.7531 -87.0906 137° Southeast 405 466 37,700 443 Climbing Indianapolis Center
Sun 09:45:58 PM 39.6994 -86.9528 117° Southeast 429 494 38,000 148 Climbing Indianapolis Center
Sun 09:46:59 PM 39.6475 -86.8128 116° Southeast 433 498 38,000  Level Indianapolis Center
Sun 09:48:01 PM 39.5928 -86.6686 116° Southeast 446 513 38,000  Level Indianapolis Center
Sun 09:49:02 PM 39.5267 -86.4983 117° Southeast 447 514 38,000  Level Indianapolis Center
Sun 09:50:03 PM 39.4733 -86.3608 117° Southeast 438 504 38,000  Level Indianapolis Center
Sun 09:51:04 PM 39.4206 -86.2253 117° Southeast 429 494 38,000  Level Indianapolis Center
Sun 09:52:05 PM 39.3692 -86.0925 117° Southeast 420 483 38,000  Level Indianapolis Center
Sun 09:53:08 PM 39.3169 -85.9614 117° Southeast 415 478 38,000  Level Indianapolis Center
Sun 09:54:07 PM 39.2639 -85.8272 117° Southeast 420 483 38,000  Level Indianapolis Center
Sun 09:55:08 PM 39.2103 -85.6906 117° Southeast 428 493 38,000  Level Indianapolis Center
Sun 09:56:10 PM 39.1550 -85.5525 117° Southeast 433 498 38,000  Level Indianapolis Center
Sun 09:57:11 PM 39.0897 -85.3883 117° Southeast 432 497 38,000 393 Level Indianapolis Center
Sun 09:58:12 PM 39.0342 -85.2503 117° Southeast 436 502 38,800 492 Climbing Indianapolis Center
Sun 09:59:13 PM 38.9808 -85.1172 117° Southeast 423 487 39,000 98 Climbing Indianapolis Center
Sun 10:00:14 PM 38.9253 -84.9842 118° Southeast 424 488 39,000  Level Indianapolis Center
Sun 10:01:15 PM 38.8719 -84.8508 117° Southeast 421 484 39,000  Level Indianapolis Center
Sun 10:02:16 PM 38.8161 -84.7175 118° Southeast 424 488 39,000  Level Indianapolis Center
Sun 10:03:17 PM 38.7619 -84.5836 117° Southeast 425 489 39,000  Level Indianapolis Center
Sun 10:04:19 PM 38.7064 -84.4478 118° Southeast 429 494 39,000  Level Indianapolis Center
Sun 10:05:20 PM 38.6506 -84.3122 118° Southeast 428 493 39,000  Level Indianapolis Center
Sun 10:06:21 PM 38.6092 -84.1517 108° East 446 513 39,000  Level Indianapolis Center
Sun 10:07:22 PM 38.5714 -84.0011 108° East 445 512 39,000  Level Indianapolis Center
Sun 10:08:23 PM 38.5314 -83.8500 109° East 447 514 39,000  Level Indianapolis Center
Sun 10:09:24 PM 38.4856 -83.6764 109° East 443 510 39,000  Level Indianapolis Center
Sun 10:10:25 PM 38.4469 -83.5286 108° East 438 504 39,000  Level Indianapolis Center
Sun 10:11:26 PM 38.4081 -83.3842 109° East 432 497 39,000  Level Indianapolis Center
Sun 10:12:27 PM 38.3689 -83.2389 109° East 432 497 39,000 -244 Level Indianapolis Center
Sun 10:13:29 PM 38.3269 -83.1003 111° Southeast 423 487 38,500 -732 Descending Indianapolis Center
Sun 10:14:30 PM 38.2819 -82.9586 112° Southeast 428 493 37,500 -984 Descending Indianapolis Center
Sun 10:15:31 PM 38.2378 -82.8164 112° Southeast 433 498 36,500 -984 Descending Indianapolis Center
Sun 10:16:32 PM 38.1944 -82.6731 111° Southeast 434 499 35,500 -984 Descending Indianapolis Center
Sun 10:17:33 PM 38.1483 -82.5278 112° Southeast 438 504 34,500 -1,131 Descending Indianapolis Center
Sun 10:18:34 PM 38.1028 -82.3839 112° Southeast 439 505 33,200 -738 Descending Indianapolis Center
Sun 10:19:35 PM 38.0572 -82.2378 112° Southeast 444 511 33,000 -98 Descending Indianapolis Center
Sun 10:20:36 PM 38.0100 -82.0889 112° Southeast 440 506 33,000  Level Indianapolis Center
Sun 10:21:37 PM 37.9653 -81.9503 112° Southeast 430 495 33,000 -344 Level Indianapolis Center
Sun 10:22:38 PM 37.9200 -81.8100 112° Southeast 431 496 32,300 -836 Descending Indianapolis Center
Sun 10:23:39 PM 37.8756 -81.6706 112° Southeast 429 494 31,300 -1,024 Descending Indianapolis Center
Sun 10:24:41 PM 37.8239 -81.5117 112° Southeast 427 491 30,200 -1,024 Descending Indianapolis Center
Sun 10:25:42 PM 37.7778 -81.3750 113° Southeast 439 505 29,200 -590 Descending Indianapolis Center
Sun 10:26:43 PM 37.7322 -81.2353 112° Southeast 443 510 29,000 -98 Descending Indianapolis Center
Sun 10:27:44 PM 37.6861 -81.0931 112° Southeast 448 516 29,000  Level Indianapolis Center
Sun 10:28:45 PM 37.6292 -80.9225 113° Southeast 452 520 29,000  Level Indianapolis Center
Sun 10:29:46 PM 37.5828 -80.7800 112° Southeast 453 521 29,000  Level Indianapolis Center
Sun 10:30:47 PM 37.5342 -80.6378 113° Southeast 454 522 29,000  Level Indianapolis Center
Sun 10:31:23 PM 37.5033 -80.5528 115° Southeast 450 518 29,000 -625 Level Washington Center
Sun 10:32:23 PM 37.4547 -80.4111 113° Southeast 443 510 28,000 -1,091 Descending Washington Center
Sun 10:33:24 PM 37.4044 -80.2589 113° Southeast 438 504 26,800 -1,041 Descending Washington Center
Sun 10:34:24 PM 37.3597 -80.1228 112° Southeast 427 491 25,900 -966 Descending Washington Center
Sun 10:35:22 PM 37.2975 -80.0017 123° Southeast 420 483 24,900 -966 Descending Washington Center
Sun 10:36:22 PM 37.2325 -79.8986 128° Southeast 414 476 24,000 -950 Descending Washington Center
Sun 10:37:22 PM 37.1611 -79.7878 129° Southeast 414 476 23,000 -500 Descending Washington Center
Sun 10:38:22 PM 37.0789 -79.6922 137° Southeast 408 470 23,000  Level Washington Center
Sun 10:39:24 PM 36.9906 -79.5914 138° Southeast 394 453 23,000  Level Washington Center
Sun 10:40:22 PM 36.9122 -79.5014 137° Southeast 394 453 23,000 -950 Level Washington Center
Sun 10:41:24 PM 36.8336 -79.4144 138° Southeast 394 453 21,100 -1,900 Descending Washington Center
Sun 10:42:22 PM 36.7569 -79.3303 139° Southeast 384 442 19,200 -2,034 Descending Washington Center
Sun 10:43:22 PM 36.6883 -79.2569 139° Southeast 369 425 17,100 -1,882 Descending Washington Center
Sun 10:44:04 PM 36.6319 -79.1947 138° Southeast 353 406 16,000 -1,884 Descending Washington Center
Sun 10:45:23 PM 36.5369 -79.0897 138° Southeast 352 405 13,300 -2,051 Descending Washington Center
Sun 10:45:23 PM 36.5369 -79.0897 138° Southeast 349 402 13,300 -1,636 Level Washington Center
Sun 10:46:18 PM 36.4722 -79.0169 138° Southeast 338 389 11,800 -1,593 Descending Washington Center
Sun 10:47:16 PM 36.4075 -78.9444 138° Southeast 315 362 10,300 -1,412 Descending Washington Center
Sun 10:48:17 PM 36.3489 -78.8800 138° Southeast 279 321 9,000 -1,500 Descending Washington Center
Sun 10:49:12 PM 36.2961 -78.8264 141° Southeast 270 311 7,400 -1,500 Descending Washington Center
Sun 10:50:13 PM 36.2369 -78.7672 141° Southeast 270 311 6,100 -1,302 Descending Washington Center
Sun 10:51:21 PM 36.1825 -78.7033 137° Southeast 253 291 4,600 -1,070 Descending Washington Center
Sun 10:52:22 PM 36.1400 -78.6500 135° Southeast 236 272 3,800 -732 Descending Washington Center
Sun 10:53:24 PM 36.0889 -78.6094 147° Southeast 218 251 3,100 -403 Descending Washington Center
Sun 10:54:21 PM 36.0281 -78.6200 188° South 199 229 3,000 -51 Descending Washington Center
Sun 10:55:22 PM 35.9917 -78.6572 220° Southwest 171 197 3,000 -393 Level Washington Center
Sun 10:56:23 PM 35.9572 -78.6969 223° Southwest 163 188 2,200 -694 Descending Washington Center
Sun 10:57:23 PM 35.9333 -78.7294 228° Southwest 125 144 1,600 -639 Descending Washington Center
Sun 10:58:25 PM 35.9075 -78.7617 225° Southwest 123 142 900 -677 Descending Washington Center

Login

Don't have an account? Register now (free) for customized features, flight alerts, and more!